International Virtual Aviation Organisation

Russian Federation and Kazakhstan MCD

 

Карточка аэропорта ULPB

Внимание!
Информация на этой странице в стадии наполнения.
Если вы не увидели какой-то информации, или заметили неточность - пожалуйста сообщите нам!
Спасибо!
Команда RU-STAFF
Название аэропортаБесовец
Название аэропорта (англ.)Besovets
Превышение151 ft. (46 m.)
Координаты61°53.07', 34°9.258'
Высота перехода900
Эшелон перехода070
Коды ответчика1000
Зона ОрВДСанкт-Петербург РПИ (ULLL)
Данные METARULPB 131100Z 20002MPS 130V270 9999 BKN015 BKN046 02/M00 Q1008 NOSIG RMK QFE752/1003
Проноз погоды (TAF)NODATA
NOTAMshow/hide NOTAM
AWOS   TABLE

Информация о ВПП


Диспетчерские позиции

Позывной Наименование органа УВД Частота
ULPB_TWRПетрозаводск-Вышка128.000



Спутниковое изображение